createdAt,value
2019-03-31T00:00:31.620Z,7.40
2019-03-31T00:03:01.066Z,7.20
2019-03-31T00:05:30.506Z,7.20
2019-03-31T00:07:59.926Z,7.10
2019-03-31T00:10:29.381Z,7.10
2019-03-31T00:12:58.889Z,7.10
2019-03-31T00:15:28.394Z,7.10
2019-03-31T00:17:57.851Z,7.10
2019-03-31T00:20:27.301Z,7.10
2019-03-31T00:22:56.707Z,7.10
2019-03-31T00:25:26.189Z,7.10
2019-03-31T00:27:55.618Z,7.20
2019-03-31T00:30:25.719Z,7.30
2019-03-31T00:32:55.154Z,7.20
2019-03-31T00:35:24.586Z,7.20
2019-03-31T00:37:54.284Z,7.20
2019-03-31T00:40:23.727Z,7.30
2019-03-31T00:42:53.144Z,7.30
2019-03-31T00:45:22.590Z,7.40
2019-03-31T00:47:52.012Z,7.40
2019-03-31T00:50:21.425Z,7.40
2019-03-31T00:52:50.855Z,7.30
2019-03-31T00:55:20.663Z,7.30
2019-03-31T00:57:50.108Z,7.20
2019-03-31T01:00:39.023Z,7.10
2019-03-31T01:03:08.698Z,7.10
2019-03-31T01:05:39.336Z,7.00
2019-03-31T01:08:09.531Z,7.00
2019-03-31T01:10:39.090Z,7.00
2019-03-31T01:13:08.673Z,7.00
2019-03-31T01:15:38.423Z,7.00
2019-03-31T01:18:08.609Z,7.00
2019-03-31T01:20:38.154Z,7.00
2019-03-31T01:23:08.395Z,7.10
2019-03-31T01:25:38.334Z,7.10
2019-03-31T01:28:07.842Z,7.10
2019-03-31T01:30:37.300Z,7.10
2019-03-31T01:33:07.218Z,7.20
2019-03-31T01:35:36.723Z,7.20
2019-03-31T01:38:06.264Z,7.30
2019-03-31T01:40:35.772Z,7.40
2019-03-31T01:43:05.615Z,7.50
2019-03-31T01:45:35.132Z,7.60
2019-03-31T01:48:05.687Z,7.70
2019-03-31T01:50:54.476Z,7.70
2019-03-31T01:53:23.902Z,7.70
2019-03-31T01:55:53.313Z,7.60
2019-03-31T01:58:23.044Z,7.60
2019-03-31T02:00:54.504Z,7.70
2019-03-31T02:03:23.972Z,7.60
2019-03-31T02:05:53.399Z,7.60
2019-03-31T02:08:22.802Z,7.50
2019-03-31T02:10:52.268Z,7.50
2019-03-31T02:13:21.668Z,7.40
2019-03-31T02:15:51.070Z,7.40
2019-03-31T02:18:20.577Z,7.40
2019-03-31T02:20:50.065Z,7.20
2019-03-31T02:23:19.567Z,7.10
2019-03-31T02:25:48.981Z,6.90
2019-03-31T02:28:18.422Z,6.80
2019-03-31T02:30:47.828Z,6.80
2019-03-31T02:33:17.261Z,6.80
2019-03-31T02:35:46.765Z,6.80
2019-03-31T02:38:16.197Z,6.80
2019-03-31T02:40:45.685Z,6.80
2019-03-31T02:43:15.106Z,6.80
2019-03-31T02:45:44.523Z,6.70
2019-03-31T02:48:14.035Z,6.70
2019-03-31T02:50:49.333Z,6.70
2019-03-31T02:53:19.701Z,6.60
2019-03-31T02:55:49.739Z,6.60
2019-03-31T02:58:20.099Z,6.50
2019-03-31T03:00:49.718Z,6.50
2019-03-31T03:03:20.291Z,6.50
2019-03-31T03:05:50.369Z,6.50
2019-03-31T03:08:20.584Z,6.60
2019-03-31T03:10:52.500Z,6.60
2019-03-31T03:13:25.522Z,6.70
2019-03-31T03:16:08.579Z,6.70
2019-03-31T03:18:38.070Z,6.70
2019-03-31T03:21:07.484Z,6.70
2019-03-31T03:23:36.926Z,6.70
2019-03-31T03:26:06.330Z,6.80
2019-03-31T03:28:35.791Z,6.90
2019-03-31T03:31:10.831Z,6.90
2019-03-31T03:33:36.713Z,6.90
2019-03-31T03:36:06.304Z,6.90
2019-03-31T03:38:35.779Z,7.00
2019-03-31T03:41:05.267Z,7.00
2019-03-31T03:43:53.540Z,7.00
2019-03-31T03:46:05.972Z,7.00
2019-03-31T03:48:36.139Z,6.90
2019-03-31T03:51:05.694Z,6.90
2019-03-31T03:53:35.203Z,6.90
2019-03-31T03:56:04.699Z,6.90
2019-03-31T03:58:34.252Z,6.90
2019-03-31T04:01:05.322Z,6.90
2019-03-31T04:03:34.753Z,6.90
2019-03-31T04:06:04.212Z,6.90
2019-03-31T04:08:33.612Z,7.00
2019-03-31T04:11:22.533Z,7.00
2019-03-31T04:13:52.103Z,7.10
2019-03-31T04:16:21.581Z,7.20
2019-03-31T04:18:51.090Z,7.20
2019-03-31T04:21:20.652Z,7.30
2019-03-31T04:23:50.176Z,7.40
2019-03-31T04:26:19.654Z,7.50
2019-03-31T04:28:49.145Z,7.60
2019-03-31T04:31:18.751Z,7.70
2019-03-31T04:33:52.543Z,7.80
2019-03-31T04:36:19.405Z,7.90
2019-03-31T04:38:48.814Z,8.00
2019-03-31T04:41:18.355Z,8.00
2019-03-31T04:43:47.875Z,8.00
2019-03-31T04:46:17.372Z,8.00
2019-03-31T04:48:46.871Z,8.10
2019-03-31T04:51:16.502Z,8.10
2019-03-31T04:53:45.914Z,8.20
2019-03-31T04:56:15.484Z,8.30
2019-03-31T04:58:44.901Z,8.50
2019-03-31T05:01:14.421Z,8.80
2019-03-31T05:03:43.916Z,9.00
2019-03-31T05:06:13.325Z,9.10
2019-03-31T05:08:42.832Z,9.30
2019-03-31T05:11:12.239Z,9.30
2019-03-31T05:13:41.672Z,9.40
2019-03-31T05:16:11.103Z,9.40
2019-03-31T05:18:40.545Z,9.50
2019-03-31T05:21:10.027Z,9.50
2019-03-31T05:23:39.444Z,9.50
2019-03-31T05:26:08.882Z,9.50
2019-03-31T05:28:38.295Z,9.50
2019-03-31T05:31:08.022Z,9.50
2019-03-31T05:33:37.458Z,9.50
2019-03-31T05:36:07.145Z,9.50
2019-03-31T05:38:36.846Z,9.50
2019-03-31T05:41:06.275Z,9.50
2019-03-31T05:43:35.734Z,9.50
2019-03-31T05:46:05.165Z,9.60
2019-03-31T05:48:34.869Z,9.60
2019-03-31T05:51:04.299Z,9.60
2019-03-31T05:53:33.740Z,9.70
2019-03-31T05:56:03.464Z,9.70
2019-03-31T05:58:32.970Z,9.70
2019-03-31T06:01:02.412Z,9.70
2019-03-31T06:03:31.844Z,9.80
2019-03-31T06:06:01.245Z,9.80
2019-03-31T06:08:30.686Z,9.80
2019-03-31T06:11:00.106Z,9.80
2019-03-31T06:13:29.558Z,9.80
2019-03-31T06:15:58.979Z,9.90
2019-03-31T06:18:28.406Z,9.80
2019-03-31T06:20:57.846Z,9.90
2019-03-31T06:23:27.262Z,9.90
2019-03-31T06:25:56.781Z,9.90
2019-03-31T06:28:26.542Z,9.90
2019-03-31T06:30:56.238Z,10.00
2019-03-31T06:33:25.743Z,10.00
2019-03-31T06:35:55.241Z,10.00
2019-03-31T06:38:24.700Z,10.00
2019-03-31T06:40:58.120Z,10.00
2019-03-31T06:43:27.542Z,10.10
2019-03-31T06:45:56.983Z,10.10
2019-03-31T06:48:26.534Z,10.10
2019-03-31T06:50:56.062Z,10.20
2019-03-31T06:53:25.471Z,10.20
2019-03-31T06:55:54.928Z,10.20
2019-03-31T06:58:24.353Z,10.20
2019-03-31T07:00:53.768Z,10.20
2019-03-31T07:03:23.296Z,10.30
2019-03-31T07:05:52.742Z,10.30
2019-03-31T07:08:22.206Z,10.40
2019-03-31T07:10:51.637Z,10.40
2019-03-31T07:13:21.057Z,10.40
2019-03-31T07:15:50.858Z,10.50
2019-03-31T07:18:20.283Z,10.60
2019-03-31T07:20:50.494Z,10.60
2019-03-31T07:23:20.300Z,10.60
2019-03-31T07:25:49.731Z,10.60
2019-03-31T07:28:19.185Z,10.60
2019-03-31T07:30:48.610Z,10.60
2019-03-31T07:33:18.047Z,10.70
2019-03-31T07:35:47.537Z,10.70
2019-03-31T07:38:17.136Z,10.70
2019-03-31T07:40:46.851Z,10.70
2019-03-31T07:43:16.470Z,10.70
2019-03-31T07:45:46.352Z,10.70
2019-03-31T07:48:15.785Z,10.70
2019-03-31T07:50:45.232Z,10.60
2019-03-31T07:53:14.680Z,10.60
2019-03-31T07:55:44.092Z,10.70
2019-03-31T07:58:13.526Z,10.60
2019-03-31T08:00:42.966Z,10.60
2019-03-31T08:03:12.424Z,10.60
2019-03-31T08:05:41.938Z,10.60
2019-03-31T08:08:11.349Z,10.50
2019-03-31T08:10:40.801Z,10.50
2019-03-31T08:13:10.258Z,10.50
2019-03-31T08:15:40.009Z,10.50
2019-03-31T08:18:09.425Z,10.40
2019-03-31T08:20:38.867Z,10.40
2019-03-31T08:23:08.298Z,10.30
2019-03-31T08:25:37.727Z,10.30
2019-03-31T08:28:07.172Z,10.30
2019-03-31T08:30:36.598Z,10.30
2019-03-31T08:33:06.112Z,10.30
2019-03-31T08:35:46.660Z,10.30
2019-03-31T08:38:06.797Z,10.30
2019-03-31T08:40:36.228Z,10.20
2019-03-31T08:43:05.641Z,10.20
2019-03-31T08:45:35.155Z,10.20
2019-03-31T08:48:04.644Z,10.10
2019-03-31T08:50:34.998Z,10.20
2019-03-31T08:53:04.675Z,10.10
2019-03-31T08:55:34.402Z,10.20
2019-03-31T08:58:03.854Z,10.20
2019-03-31T09:00:40.403Z,10.10
2019-03-31T09:03:09.848Z,10.20
2019-03-31T09:05:39.280Z,10.20
2019-03-31T09:08:08.723Z,10.10
2019-03-31T09:10:38.175Z,10.10
2019-03-31T09:13:07.591Z,10.10
2019-03-31T09:15:37.114Z,10.20
2019-03-31T09:18:06.609Z,10.20
2019-03-31T09:20:36.028Z,10.20
2019-03-31T09:23:05.616Z,10.30
2019-03-31T09:25:35.117Z,10.40
2019-03-31T09:28:04.641Z,10.50
2019-03-31T09:30:34.072Z,10.60
2019-03-31T09:33:03.813Z,10.70
2019-03-31T09:35:33.250Z,10.80
2019-03-31T09:38:02.671Z,11.00
2019-03-31T09:40:32.116Z,11.10
2019-03-31T09:43:01.800Z,11.10
2019-03-31T09:45:31.303Z,11.20
2019-03-31T09:48:00.732Z,11.30
2019-03-31T09:50:30.172Z,11.30
2019-03-31T09:52:59.628Z,11.30
2019-03-31T09:55:29.028Z,11.40
2019-03-31T09:57:58.471Z,11.40
2019-03-31T10:00:56.392Z,11.50
2019-03-31T10:03:42.545Z,11.60
2019-03-31T10:06:30.502Z,11.70
2019-03-31T10:09:00.019Z,11.80
2019-03-31T10:11:36.359Z,11.90
2019-03-31T10:14:06.974Z,12.00
2019-03-31T10:16:36.997Z,12.10
2019-03-31T10:19:14.242Z,12.00
2019-03-31T10:21:46.199Z,12.10
2019-03-31T10:24:19.309Z,12.10
2019-03-31T10:26:57.589Z,12.10
2019-03-31T10:29:28.282Z,12.10
2019-03-31T10:32:00.236Z,12.20
2019-03-31T10:34:31.877Z,12.30
2019-03-31T10:37:06.601Z,12.40
2019-03-31T10:39:47.603Z,12.40
2019-03-31T10:42:15.208Z,12.50
2019-03-31T10:44:46.704Z,12.50
2019-03-31T10:47:24.020Z,12.60
2019-03-31T10:50:00.385Z,12.60
2019-03-31T10:52:41.719Z,12.60
2019-03-31T10:55:19.942Z,12.60
2019-03-31T10:57:57.454Z,12.80
2019-03-31T11:00:36.865Z,13.00
2019-03-31T11:03:08.526Z,13.10
2019-03-31T11:05:38.789Z,13.30
2019-03-31T11:08:08.963Z,13.40
2019-03-31T11:10:45.521Z,13.50
2019-03-31T11:13:19.261Z,13.50
2019-03-31T11:15:57.259Z,13.70
2019-03-31T11:18:25.691Z,13.90
2019-03-31T11:20:57.092Z,13.90
2019-03-31T11:23:32.556Z,13.80
2019-03-31T11:26:11.669Z,13.90
2019-03-31T11:28:47.842Z,14.10
2019-03-31T11:31:26.000Z,14.20
2019-03-31T11:34:01.833Z,14.20
2019-03-31T11:36:41.749Z,14.10
2019-03-31T11:39:16.154Z,14.10
2019-03-31T11:41:44.531Z,14.30
2019-03-31T11:44:13.970Z,14.60
2019-03-31T11:46:43.381Z,15.00
2019-03-31T11:49:12.824Z,15.40
2019-03-31T11:51:42.291Z,15.70
2019-03-31T11:54:11.722Z,15.90
2019-03-31T11:56:41.147Z,16.10
2019-03-31T11:59:10.582Z,16.20
2019-03-31T12:01:40.028Z,16.20
2019-03-31T12:04:09.472Z,16.20
2019-03-31T12:06:38.966Z,16.10
2019-03-31T12:09:08.865Z,16.20
2019-03-31T12:11:38.423Z,16.40
2019-03-31T12:14:08.199Z,16.30
2019-03-31T12:16:37.645Z,16.30
2019-03-31T12:19:07.186Z,16.10
2019-03-31T12:21:39.684Z,15.80
2019-03-31T12:24:09.224Z,15.70
2019-03-31T12:26:41.588Z,15.70
2019-03-31T12:29:13.122Z,15.90
2019-03-31T12:31:42.630Z,16.10
2019-03-31T12:34:12.229Z,16.30
2019-03-31T12:36:41.774Z,16.30
2019-03-31T12:39:11.419Z,16.40
2019-03-31T12:41:42.781Z,16.30
2019-03-31T12:44:14.137Z,16.10
2019-03-31T12:46:43.583Z,15.90
2019-03-31T12:49:13.392Z,15.80
2019-03-31T12:51:42.884Z,15.70
2019-03-31T12:54:12.654Z,15.50
2019-03-31T12:56:42.095Z,15.60
2019-03-31T12:59:11.516Z,15.50
2019-03-31T13:01:40.969Z,15.50
2019-03-31T13:04:10.448Z,15.80
2019-03-31T13:06:39.906Z,16.30
2019-03-31T13:09:09.999Z,16.70
2019-03-31T13:11:39.707Z,16.60
2019-03-31T13:14:09.492Z,16.40
2019-03-31T13:16:38.992Z,16.10
2019-03-31T13:19:08.452Z,16.10
2019-03-31T13:21:37.970Z,15.90
2019-03-31T13:24:07.398Z,15.70
2019-03-31T13:26:36.910Z,15.70
2019-03-31T13:29:06.486Z,15.70
2019-03-31T13:31:35.932Z,15.60
2019-03-31T13:34:05.504Z,15.50
2019-03-31T13:36:34.941Z,15.30
2019-03-31T13:39:06.799Z,15.30
2019-03-31T13:41:36.230Z,15.30
2019-03-31T13:44:05.731Z,15.60
2019-03-31T13:46:35.464Z,15.70
2019-03-31T13:49:04.975Z,15.90
2019-03-31T13:51:34.531Z,15.70
2019-03-31T13:54:04.392Z,15.60
2019-03-31T13:56:34.917Z,15.50
2019-03-31T13:59:05.163Z,15.40
2019-03-31T14:01:34.624Z,15.40
2019-03-31T14:04:04.184Z,15.30
2019-03-31T14:06:33.639Z,15.30
2019-03-31T14:09:04.751Z,15.50
2019-03-31T14:11:34.208Z,15.80
2019-03-31T14:14:03.649Z,15.90
2019-03-31T14:16:33.065Z,16.10
2019-03-31T14:19:02.492Z,16.00
2019-03-31T14:21:31.955Z,16.00
2019-03-31T14:24:01.389Z,15.90
2019-03-31T14:26:30.841Z,15.90
2019-03-31T14:29:00.268Z,15.80
2019-03-31T14:31:29.692Z,15.70
2019-03-31T14:33:59.458Z,15.60
2019-03-31T14:36:28.867Z,15.60
2019-03-31T14:38:58.407Z,15.50
2019-03-31T14:41:27.890Z,15.60
2019-03-31T14:43:57.326Z,15.60
2019-03-31T14:46:26.759Z,15.70
2019-03-31T14:48:56.177Z,15.60
2019-03-31T14:51:25.615Z,15.60
2019-03-31T14:53:55.130Z,15.40
2019-03-31T14:56:24.585Z,15.40
2019-03-31T14:58:54.549Z,15.40
2019-03-31T15:01:24.290Z,15.30
2019-03-31T15:04:13.076Z,15.20
2019-03-31T15:06:42.513Z,15.10
2019-03-31T15:09:11.967Z,15.10
2019-03-31T15:11:41.377Z,15.10
2019-03-31T15:14:10.811Z,15.00
2019-03-31T15:16:40.231Z,14.90
2019-03-31T15:19:09.658Z,14.80
2019-03-31T15:21:43.821Z,14.80
2019-03-31T15:24:10.599Z,14.70
2019-03-31T15:26:40.027Z,14.70
2019-03-31T15:29:09.472Z,14.70
2019-03-31T15:31:38.892Z,14.60
2019-03-31T15:34:08.402Z,14.60
2019-03-31T15:36:37.918Z,14.60
2019-03-31T15:39:10.353Z,14.50
2019-03-31T15:41:39.844Z,14.40
2019-03-31T15:44:09.277Z,14.30
2019-03-31T15:46:38.708Z,14.20
2019-03-31T15:49:08.149Z,14.20
2019-03-31T15:51:37.587Z,14.30
2019-03-31T15:54:07.021Z,14.30
2019-03-31T15:56:36.450Z,14.30
2019-03-31T15:59:05.889Z,14.30
2019-03-31T16:01:35.395Z,14.20
2019-03-31T16:04:04.983Z,14.10
2019-03-31T16:06:34.686Z,14.10
2019-03-31T16:09:05.437Z,14.10
2019-03-31T16:11:54.349Z,14.10
2019-03-31T16:14:24.150Z,14.10
2019-03-31T16:16:53.663Z,14.00
2019-03-31T16:19:23.101Z,13.90
2019-03-31T16:21:52.521Z,13.90
2019-03-31T16:24:27.372Z,13.90
2019-03-31T16:26:57.531Z,13.90
2019-03-31T16:29:27.130Z,13.90
2019-03-31T16:31:57.893Z,13.90
2019-03-31T16:34:27.464Z,13.90
2019-03-31T16:36:56.900Z,13.90
2019-03-31T16:39:37.136Z,13.80
2019-03-31T16:41:57.503Z,13.70
2019-03-31T16:44:27.316Z,13.70
2019-03-31T16:46:56.757Z,13.70
2019-03-31T16:49:26.179Z,13.60
2019-03-31T16:51:55.698Z,13.60
2019-03-31T16:54:25.291Z,13.50
2019-03-31T16:56:54.787Z,13.50
2019-03-31T16:59:24.293Z,13.50
2019-03-31T17:01:53.785Z,13.40
2019-03-31T17:04:23.312Z,13.40
2019-03-31T17:06:52.742Z,13.30
2019-03-31T17:09:22.164Z,13.30
2019-03-31T17:11:51.599Z,13.20
2019-03-31T17:14:21.020Z,13.20
2019-03-31T17:16:50.463Z,13.20
2019-03-31T17:19:19.882Z,13.10
2019-03-31T17:21:49.308Z,13.10
2019-03-31T17:24:18.741Z,13.00
2019-03-31T17:26:48.835Z,13.00
2019-03-31T17:29:18.318Z,13.00
2019-03-31T17:31:48.144Z,13.00
2019-03-31T17:34:17.574Z,12.90
2019-03-31T17:36:47.019Z,12.90
2019-03-31T17:39:16.549Z,12.80
2019-03-31T17:41:46.058Z,12.70
2019-03-31T17:44:15.471Z,12.70
2019-03-31T17:46:44.931Z,12.60
2019-03-31T17:49:14.351Z,12.50
2019-03-31T17:51:43.775Z,12.50
2019-03-31T17:54:13.225Z,12.40
2019-03-31T17:56:42.643Z,12.30
2019-03-31T17:59:12.089Z,12.20
2019-03-31T18:01:41.577Z,12.10
2019-03-31T18:04:11.053Z,12.00
2019-03-31T18:06:40.490Z,12.00
2019-03-31T18:09:10.535Z,11.90
2019-03-31T18:11:39.999Z,11.80
2019-03-31T18:14:09.430Z,11.80
2019-03-31T18:16:39.012Z,11.70
2019-03-31T18:19:08.426Z,11.60
2019-03-31T18:21:37.871Z,11.50
2019-03-31T18:24:07.303Z,11.40
2019-03-31T18:26:36.717Z,11.40
2019-03-31T18:29:06.241Z,11.40
2019-03-31T18:31:35.655Z,11.40
2019-03-31T18:34:05.144Z,11.40
2019-03-31T18:36:36.821Z,11.30
2019-03-31T18:39:08.042Z,11.30
2019-03-31T18:41:37.485Z,11.20
2019-03-31T18:44:07.262Z,11.10
2019-03-31T18:46:36.686Z,11.10
2019-03-31T18:49:06.195Z,11.10
2019-03-31T18:51:35.618Z,11.00
2019-03-31T18:54:21.630Z,11.00
2019-03-31T18:56:52.686Z,10.90
2019-03-31T18:59:38.455Z,10.80
2019-03-31T19:02:11.985Z,10.80
2019-03-31T19:04:43.419Z,10.60
2019-03-31T19:07:17.241Z,10.50
2019-03-31T19:09:48.308Z,10.40
2019-03-31T19:12:37.511Z,10.30
2019-03-31T19:15:14.455Z,10.30
2019-03-31T19:18:21.199Z,10.20
2019-03-31T19:20:54.670Z,10.20
2019-03-31T19:23:43.768Z,10.20
2019-03-31T19:26:23.416Z,10.10
2019-03-31T19:29:06.221Z,10.10
2019-03-31T19:31:37.294Z,10.00
2019-03-31T19:34:17.029Z,10.00
2019-03-31T19:36:48.096Z,9.90
2019-03-31T19:39:19.146Z,9.80
2019-03-31T19:42:06.172Z,9.70
2019-03-31T19:44:43.170Z,9.70
2019-03-31T19:47:17.169Z,9.60
2019-03-31T19:49:50.949Z,9.60
2019-03-31T19:52:30.862Z,9.60
2019-03-31T19:55:01.946Z,9.50
2019-03-31T19:57:33.066Z,9.50
2019-03-31T20:00:06.733Z,9.40
2019-03-31T20:02:40.485Z,9.40
2019-03-31T20:05:20.684Z,9.30
2019-03-31T20:07:51.756Z,9.30
2019-03-31T20:10:28.594Z,9.30
2019-03-31T20:13:15.981Z,9.30
2019-03-31T20:16:02.750Z,9.30
2019-03-31T20:18:50.089Z,9.30
2019-03-31T20:21:32.242Z,9.30
2019-03-31T20:24:17.443Z,9.20
2019-03-31T20:26:48.513Z,9.20
2019-03-31T20:29:28.530Z,9.20
2019-03-31T20:32:02.329Z,9.20
2019-03-31T20:34:48.373Z,9.20
2019-03-31T20:37:28.084Z,9.20
2019-03-31T20:40:15.629Z,9.20
2019-03-31T20:43:04.710Z,9.20
2019-03-31T20:45:34.134Z,9.20
2019-03-31T20:48:03.553Z,9.20
2019-03-31T20:50:33.361Z,9.20
2019-03-31T20:53:02.821Z,9.20
2019-03-31T20:55:32.215Z,9.20
2019-03-31T20:58:01.954Z,9.10
2019-03-31T21:00:31.745Z,9.10
2019-03-31T21:03:01.161Z,9.10
2019-03-31T21:05:30.972Z,9.00
2019-03-31T21:08:00.418Z,9.00
2019-03-31T21:10:29.828Z,8.90
2019-03-31T21:12:59.262Z,8.90
2019-03-31T21:15:28.662Z,8.80
2019-03-31T21:17:58.096Z,8.80
2019-03-31T21:20:27.571Z,8.70
2019-03-31T21:22:56.975Z,8.70
2019-03-31T21:25:26.414Z,8.70
2019-03-31T21:27:55.827Z,8.60
2019-03-31T21:30:25.255Z,8.50
2019-03-31T21:32:54.678Z,8.50
2019-03-31T21:35:24.090Z,8.50
2019-03-31T21:37:53.544Z,8.50
2019-03-31T21:40:22.967Z,8.60
2019-03-31T21:42:52.365Z,8.50
2019-03-31T21:45:21.798Z,8.40
2019-03-31T21:47:51.202Z,8.40
2019-03-31T21:50:20.635Z,8.30
2019-03-31T21:52:50.035Z,8.30
2019-03-31T21:55:19.474Z,8.30
2019-03-31T21:57:49.267Z,8.20
2019-03-31T22:00:20.897Z,8.20
2019-03-31T22:02:50.319Z,8.20
2019-03-31T22:05:20.076Z,8.30
2019-03-31T22:07:49.522Z,8.30
2019-03-31T22:10:18.927Z,8.30
2019-03-31T22:12:48.338Z,8.30
2019-03-31T22:15:17.830Z,8.30
2019-03-31T22:17:47.232Z,8.30
2019-03-31T22:20:16.739Z,8.30
2019-03-31T22:22:46.158Z,8.30
2019-03-31T22:25:15.732Z,8.20
2019-03-31T22:27:45.240Z,8.20
2019-03-31T22:30:14.734Z,8.20
2019-03-31T22:32:44.145Z,8.20
2019-03-31T22:35:13.544Z,8.20
2019-03-31T22:37:43.024Z,8.20
2019-03-31T22:40:12.597Z,8.10
2019-03-31T22:42:42.008Z,8.10
2019-03-31T22:45:11.496Z,8.00
2019-03-31T22:47:41.240Z,8.00
2019-03-31T22:50:10.888Z,8.00
2019-03-31T22:52:40.293Z,8.00
2019-03-31T22:55:09.703Z,8.10
2019-03-31T22:57:39.131Z,8.00
2019-03-31T23:00:10.538Z,8.00
2019-03-31T23:02:39.964Z,7.90
2019-03-31T23:05:10.988Z,7.90
2019-03-31T23:07:40.400Z,7.90
2019-03-31T23:10:09.901Z,7.90
2019-03-31T23:12:39.308Z,7.90
2019-03-31T23:15:09.008Z,7.90
2019-03-31T23:17:38.489Z,7.90
2019-03-31T23:20:08.332Z,7.80
2019-03-31T23:22:37.761Z,7.80
2019-03-31T23:25:07.639Z,7.80
2019-03-31T23:27:37.054Z,7.80
2019-03-31T23:30:09.671Z,7.80
2019-03-31T23:32:39.124Z,7.70
2019-03-31T23:35:08.969Z,7.70
2019-03-31T23:37:38.390Z,7.60
2019-03-31T23:40:08.351Z,7.60
2019-03-31T23:42:37.773Z,7.60
2019-03-31T23:45:08.038Z,7.50
2019-03-31T23:47:37.456Z,7.50
2019-03-31T23:50:07.207Z,7.50
2019-03-31T23:52:38.795Z,7.50
2019-03-31T23:55:08.274Z,7.50
2019-03-31T23:57:44.078Z,7.50
